createdAt,value
2022-08-22T00:00:15.508Z,96.28
2022-08-22T00:01:02.393Z,96.69
2022-08-22T00:01:42.396Z,96.39
2022-08-22T00:02:23.638Z,96.57
2022-08-22T00:02:41.797Z,96.82
2022-08-22T00:02:55.135Z,97.03
2022-08-22T00:02:59.073Z,96.98
2022-08-22T00:03:03.864Z,97.47
2022-08-22T00:03:09.333Z,97.14
2022-08-22T00:04:24.607Z,96.49
2022-08-22T00:04:58.846Z,96.67
2022-08-22T00:06:02.577Z,97.02
2022-08-22T00:06:58.169Z,96.65
2022-08-22T00:07:48.439Z,96.17
2022-08-22T00:09:05.410Z,96.52
2022-08-22T00:10:01.345Z,96.96
2022-08-22T00:11:00.967Z,96.88
2022-08-22T00:11:40.329Z,96.62
2022-08-22T00:12:29.557Z,96.96
2022-08-22T00:13:07.723Z,97.00
2022-08-22T00:13:43.292Z,97.81
2022-08-22T00:14:32.360Z,96.96
2022-08-22T00:15:07.629Z,96.41
2022-08-22T00:15:57.098Z,96.55
2022-08-22T00:16:38.396Z,96.46
2022-08-22T00:17:22.127Z,96.95
2022-08-22T00:18:28.516Z,96.62
2022-08-22T00:19:31.897Z,96.70
2022-08-22T00:20:13.476Z,96.65
2022-08-22T00:21:08.671Z,96.66
2022-08-22T00:22:04.821Z,96.57
2022-08-22T00:22:54.659Z,96.59
2022-08-22T00:23:53.514Z,96.46
2022-08-22T00:24:35.171Z,96.57
2022-08-22T00:25:25.681Z,96.92
2022-08-22T00:26:17.749Z,96.82
2022-08-22T00:27:05.923Z,96.83
2022-08-22T00:27:51.992Z,96.63
2022-08-22T00:28:49.379Z,97.17
2022-08-22T00:29:53.646Z,96.78
2022-08-22T00:30:26.557Z,96.54
2022-08-22T00:31:14.417Z,96.32
2022-08-22T00:31:51.225Z,96.47
2022-08-22T00:32:48.421Z,96.48
2022-08-22T00:33:34.686Z,96.69
2022-08-22T00:34:15.718Z,96.94
2022-08-22T00:35:02.522Z,96.74
2022-08-22T00:35:44.520Z,96.94
2022-08-22T00:36:25.988Z,96.79
2022-08-22T00:37:19.199Z,96.85
2022-08-22T00:38:01.190Z,97.27
2022-08-22T00:38:38.497Z,97.05
2022-08-22T00:39:18.954Z,97.01
2022-08-22T00:40:03.156Z,97.29
2022-08-22T00:41:03.633Z,97.44
2022-08-22T00:41:49.466Z,97.04
2022-08-22T00:42:31.386Z,96.99
2022-08-22T00:43:09.941Z,96.87
2022-08-22T00:43:59.918Z,97.24
2022-08-22T00:45:00.730Z,98.00
2022-08-22T00:45:59.459Z,97.63
2022-08-22T00:47:02.895Z,97.47
2022-08-22T00:48:05.597Z,97.36
2022-08-22T00:49:07.901Z,96.95
2022-08-22T00:49:59.677Z,97.20
2022-08-22T00:50:59.858Z,97.07
2022-08-22T00:52:09.188Z,97.34
2022-08-22T00:52:59.603Z,97.19
2022-08-22T00:53:31.145Z,97.40
2022-08-22T00:54:22.931Z,97.38
2022-08-22T00:55:03.373Z,96.79
2022-08-22T00:56:11.605Z,96.81
2022-08-22T00:56:46.785Z,97.60
2022-08-22T00:57:35.751Z,97.37
2022-08-22T00:58:25.662Z,97.03
2022-08-22T00:59:23.611Z,96.78
2022-08-22T01:00:01.891Z,97.32
2022-08-22T01:00:42.619Z,96.90
2022-08-22T01:01:20.768Z,96.89
2022-08-22T01:02:11.093Z,96.83
2022-08-22T01:03:21.139Z,96.88
2022-08-22T01:04:23.841Z,96.84
2022-08-22T01:05:22.593Z,97.00
2022-08-22T01:06:22.925Z,96.92
2022-08-22T01:06:57.297Z,97.01
2022-08-22T01:08:00.201Z,97.03
2022-08-22T01:08:55.955Z,96.88
2022-08-22T01:10:15.509Z,97.05
2022-08-22T01:10:57.845Z,96.91
2022-08-22T01:11:44.665Z,97.16
2022-08-22T01:12:54.617Z,96.95
2022-08-22T01:13:53.974Z,96.94
2022-08-22T01:14:47.695Z,97.26
2022-08-22T01:15:27.168Z,97.25
2022-08-22T01:16:21.843Z,96.96
2022-08-22T01:17:00.769Z,96.68
2022-08-22T01:17:50.557Z,96.92
2022-08-22T01:18:45.681Z,96.99
2022-08-22T01:19:38.497Z,97.34
2022-08-22T01:20:29.435Z,97.37
2022-08-22T01:21:27.277Z,97.19
2022-08-22T01:22:07.861Z,97.25
2022-08-22T01:22:59.485Z,97.31
2022-08-22T01:23:52.497Z,97.51
2022-08-22T01:25:01.857Z,97.38
2022-08-22T01:26:22.393Z,97.07
2022-08-22T01:26:56.592Z,97.95
2022-08-22T01:28:14.076Z,97.27
2022-08-22T01:29:28.426Z,97.41
2022-08-22T01:30:11.909Z,97.27
2022-08-22T01:31:05.832Z,97.35
2022-08-22T01:31:57.609Z,97.46
2022-08-22T01:32:44.636Z,97.30
2022-08-22T01:33:34.311Z,97.41
2022-08-22T01:34:12.921Z,97.33
2022-08-22T01:34:50.543Z,97.44
2022-08-22T01:36:15.876Z,97.48
2022-08-22T01:37:01.646Z,97.30
2022-08-22T01:37:36.081Z,98.01
2022-08-22T01:38:36.987Z,97.55
2022-08-22T01:39:08.543Z,97.21
2022-08-22T01:39:48.843Z,97.52
2022-08-22T01:40:20.430Z,97.39
2022-08-22T01:40:53.813Z,97.08
2022-08-22T01:41:46.875Z,97.28
2022-08-22T01:42:34.737Z,97.80
2022-08-22T01:43:51.436Z,97.55
2022-08-22T01:44:52.513Z,98.13
2022-08-22T01:45:56.869Z,97.50
2022-08-22T01:46:53.941Z,97.45
2022-08-22T01:47:39.313Z,97.53
2022-08-22T01:48:19.782Z,97.70
2022-08-22T01:49:00.135Z,97.59
2022-08-22T01:49:34.249Z,97.36
2022-08-22T01:50:24.636Z,97.79
2022-08-22T01:51:09.787Z,97.36
2022-08-22T01:52:00.079Z,97.40
2022-08-22T01:52:47.577Z,97.34
2022-08-22T01:53:28.377Z,97.83
2022-08-22T01:54:33.265Z,97.03
2022-08-22T01:55:23.057Z,97.71
2022-08-22T01:56:10.368Z,97.56
2022-08-22T01:56:44.758Z,97.17
2022-08-22T01:57:17.597Z,97.58
2022-08-22T01:57:53.234Z,97.28
2022-08-22T01:58:28.373Z,97.32
2022-08-22T01:59:10.073Z,97.37
2022-08-22T01:59:47.185Z,97.51
2022-08-22T02:00:35.450Z,97.82
2022-08-22T02:01:51.049Z,97.56
2022-08-22T02:02:50.525Z,97.63
2022-08-22T02:03:31.754Z,97.50
2022-08-22T02:04:11.133Z,98.04
2022-08-22T02:04:58.221Z,97.53
2022-08-22T02:05:47.037Z,97.71
2022-08-22T02:06:40.480Z,97.61
2022-08-22T02:07:20.093Z,97.43
2022-08-22T02:08:12.897Z,97.26
2022-08-22T02:08:54.093Z,97.44
2022-08-22T02:09:47.484Z,97.32
2022-08-22T02:10:57.195Z,97.41
2022-08-22T02:11:54.114Z,97.43
2022-08-22T02:12:55.505Z,97.41
2022-08-22T02:14:04.741Z,97.03
2022-08-22T02:14:44.065Z,97.08
2022-08-22T02:15:24.371Z,97.05
2022-08-22T02:16:11.827Z,97.03
2022-08-22T02:16:48.149Z,96.93
2022-08-22T02:17:35.678Z,97.45
2022-08-22T02:18:07.243Z,97.13
2022-08-22T02:18:52.689Z,96.89
2022-08-22T02:19:35.169Z,97.11
2022-08-22T02:20:31.370Z,97.30
2022-08-22T02:21:23.105Z,96.89
2022-08-22T02:22:06.763Z,96.94
2022-08-22T02:22:56.890Z,96.87
2022-08-22T02:23:33.153Z,96.97
2022-08-22T02:24:35.732Z,96.98
2022-08-22T02:25:11.111Z,96.91
2022-08-22T02:25:54.823Z,97.05
2022-08-22T02:27:03.440Z,97.62
2022-08-22T02:28:14.696Z,97.03
2022-08-22T02:29:22.761Z,97.06
2022-08-22T02:30:14.954Z,96.96
2022-08-22T02:30:55.068Z,96.81
2022-08-22T02:31:29.361Z,97.12
2022-08-22T02:32:15.436Z,96.91
2022-08-22T02:33:10.928Z,96.95
2022-08-22T02:33:49.163Z,96.81
2022-08-22T02:34:38.622Z,96.90
2022-08-22T02:35:14.332Z,96.87
2022-08-22T02:35:59.458Z,97.10
2022-08-22T02:36:43.766Z,96.94
2022-08-22T02:37:23.113Z,96.78
2022-08-22T02:38:20.189Z,97.09
2022-08-22T02:39:08.890Z,96.77
2022-08-22T02:40:01.663Z,96.81
2022-08-22T02:41:04.875Z,96.72
2022-08-22T02:41:57.657Z,96.72
2022-08-22T02:42:40.337Z,96.94
2022-08-22T02:43:26.113Z,96.72
2022-08-22T02:44:03.667Z,97.05
2022-08-22T02:45:26.302Z,97.20
2022-08-22T02:46:18.565Z,96.88
2022-08-22T02:46:59.097Z,96.74
2022-08-22T02:47:42.011Z,96.78
2022-08-22T02:48:35.371Z,96.82
2022-08-22T02:49:27.402Z,96.39
2022-08-22T02:50:43.665Z,96.91
2022-08-22T02:51:36.181Z,96.91
2022-08-22T02:52:17.604Z,96.74
2022-08-22T02:53:05.497Z,96.87
2022-08-22T02:53:48.528Z,97.00
2022-08-22T02:54:42.225Z,96.87
2022-08-22T02:55:21.299Z,96.64
2022-08-22T02:56:06.262Z,96.98
2022-08-22T02:56:53.473Z,97.10
2022-08-22T02:58:02.703Z,97.17
2022-08-22T02:58:46.465Z,97.62
2022-08-22T02:59:31.987Z,97.73
2022-08-22T03:00:24.987Z,97.80
2022-08-22T03:01:33.601Z,97.10
2022-08-22T03:02:56.964Z,97.00
2022-08-22T03:03:31.735Z,97.21
2022-08-22T03:04:32.549Z,97.00
2022-08-22T03:05:28.661Z,97.04
2022-08-22T03:07:14.822Z,97.08
2022-08-22T03:08:02.326Z,97.33
2022-08-22T03:08:47.570Z,97.40
2022-08-22T03:09:29.852Z,97.09
2022-08-22T03:10:20.077Z,97.21
2022-08-22T03:11:29.596Z,97.12
2022-08-22T03:12:07.131Z,97.26
2022-08-22T03:12:51.329Z,97.50
2022-08-22T03:13:39.918Z,97.46
2022-08-22T03:14:23.672Z,97.41
2022-08-22T03:15:00.289Z,97.16
2022-08-22T03:15:55.183Z,97.52
2022-08-22T03:16:40.604Z,97.80
2022-08-22T03:17:28.775Z,97.53
2022-08-22T03:18:04.102Z,97.64
2022-08-22T03:18:52.967Z,97.79
2022-08-22T03:19:34.042Z,97.81
2022-08-22T03:20:06.465Z,97.57
2022-08-22T03:20:45.157Z,97.51
2022-08-22T03:21:41.074Z,97.53
2022-08-22T03:22:37.577Z,97.98
2022-08-22T03:23:14.379Z,97.59
2022-08-22T03:24:01.835Z,97.57
2022-08-22T03:24:42.390Z,97.37
2022-08-22T03:25:13.993Z,97.54
2022-08-22T03:25:45.953Z,97.44
2022-08-22T03:26:26.126Z,97.23
2022-08-22T03:26:57.692Z,97.39
2022-08-22T03:27:49.474Z,97.45
2022-08-22T03:28:32.475Z,97.38
2022-08-22T03:29:08.897Z,97.39
2022-08-22T03:29:48.021Z,97.35
2022-08-22T03:30:23.425Z,97.45
2022-08-22T03:31:25.522Z,97.40
2022-08-22T03:32:07.943Z,97.26
2022-08-22T03:32:52.117Z,97.54
2022-08-22T03:33:30.467Z,97.65
2022-08-22T03:34:21.400Z,97.37
2022-08-22T03:35:08.777Z,97.24
2022-08-22T03:35:45.983Z,97.28
2022-08-22T03:36:17.635Z,97.26
2022-08-22T03:37:04.722Z,97.10
2022-08-22T03:37:43.629Z,97.29
2022-08-22T03:38:41.262Z,97.18
2022-08-22T03:39:35.494Z,97.38
2022-08-22T03:40:13.174Z,97.37
2022-08-22T03:40:56.889Z,97.53
2022-08-22T03:41:43.477Z,97.09
2022-08-22T03:42:39.990Z,97.09
2022-08-22T03:43:45.532Z,97.24
2022-08-22T03:44:54.637Z,97.43
2022-08-22T03:45:54.367Z,97.41
2022-08-22T03:46:41.303Z,97.19
2022-08-22T03:47:18.630Z,97.26
2022-08-22T03:48:20.420Z,97.27
2022-08-22T03:49:19.426Z,97.34
2022-08-22T03:50:14.123Z,97.18
2022-08-22T03:50:51.387Z,96.90
2022-08-22T03:51:38.328Z,96.94
2022-08-22T03:53:06.110Z,97.20
2022-08-22T03:54:07.495Z,96.99
2022-08-22T03:54:54.171Z,97.20
2022-08-22T03:55:32.736Z,97.35
2022-08-22T03:56:26.223Z,97.10
2022-08-22T03:57:13.006Z,96.91
2022-08-22T03:58:31.178Z,97.40
2022-08-22T03:59:14.967Z,96.82
2022-08-22T03:59:55.481Z,96.72
2022-08-22T04:01:21.910Z,96.91
2022-08-22T04:02:43.167Z,96.87
2022-08-22T04:03:34.790Z,97.04
2022-08-22T04:04:31.696Z,97.10
2022-08-22T04:05:23.654Z,97.04
2022-08-22T04:06:27.325Z,97.08
2022-08-22T04:07:28.379Z,97.00
2022-08-22T04:08:29.940Z,97.07
2022-08-22T04:09:29.189Z,97.44
2022-08-22T04:10:29.458Z,97.42
2022-08-22T04:11:07.699Z,97.30
2022-08-22T04:12:08.759Z,97.00
2022-08-22T04:12:46.012Z,97.02
2022-08-22T04:13:29.492Z,96.98
2022-08-22T04:14:15.984Z,96.93
2022-08-22T04:15:16.658Z,96.81
2022-08-22T04:16:13.074Z,96.75
2022-08-22T04:17:09.332Z,97.03
2022-08-22T04:18:18.513Z,96.56
2022-08-22T04:19:20.652Z,96.54
2022-08-22T04:20:21.183Z,96.80
2022-08-22T04:21:14.138Z,96.82
2022-08-22T04:22:13.248Z,97.38
2022-08-22T04:23:14.322Z,97.15
2022-08-22T04:24:02.324Z,97.11
2022-08-22T04:24:43.072Z,97.08
2022-08-22T04:25:40.672Z,97.02
2022-08-22T04:26:17.240Z,96.77
2022-08-22T04:27:20.624Z,96.92
2022-08-22T04:28:11.048Z,97.20
2022-08-22T04:28:52.540Z,97.02
2022-08-22T04:29:42.630Z,97.06
2022-08-22T04:30:26.054Z,96.78
2022-08-22T04:31:22.394Z,96.92
2022-08-22T04:32:06.955Z,97.39
2022-08-22T04:32:38.544Z,97.31
2022-08-22T04:33:26.600Z,97.01
2022-08-22T04:34:19.928Z,97.27
2022-08-22T04:35:22.305Z,96.86
2022-08-22T04:36:02.960Z,96.98
2022-08-22T04:36:43.711Z,96.96
2022-08-22T04:37:29.090Z,96.95
2022-08-22T04:38:15.587Z,96.80
2022-08-22T04:39:18.584Z,97.17
2022-08-22T04:40:34.461Z,96.95
2022-08-22T04:41:13.588Z,96.91
2022-08-22T04:42:06.960Z,96.58
2022-08-22T04:43:10.556Z,96.71
2022-08-22T04:43:42.175Z,96.58
2022-08-22T04:44:24.049Z,96.68
2022-08-22T04:45:29.683Z,96.55
2022-08-22T04:46:05.258Z,96.47
2022-08-22T04:47:04.781Z,96.73
2022-08-22T04:47:57.941Z,96.78
2022-08-22T04:48:39.090Z,96.82
2022-08-22T04:49:22.342Z,96.74
2022-08-22T04:50:15.998Z,96.69
2022-08-22T04:51:10.582Z,96.35
2022-08-22T04:51:49.863Z,96.67
2022-08-22T04:52:35.633Z,96.64
2022-08-22T04:53:49.747Z,96.64
2022-08-22T04:54:58.869Z,96.60
2022-08-22T04:55:42.297Z,96.55
2022-08-22T04:56:35.724Z,96.72
2022-08-22T04:57:32.196Z,96.50
2022-08-22T04:58:22.410Z,96.15
2022-08-22T04:59:12.490Z,96.23
2022-08-22T04:59:44.385Z,95.86
2022-08-22T05:00:16.941Z,96.20
2022-08-22T05:01:03.603Z,96.42
2022-08-22T05:01:44.695Z,96.31
2022-08-22T05:02:27.601Z,95.90
2022-08-22T05:03:02.881Z,96.22
2022-08-22T05:03:44.381Z,96.44
2022-08-22T05:04:23.965Z,96.55
2022-08-22T05:05:13.839Z,96.28
2022-08-22T05:05:48.342Z,96.05
2022-08-22T05:06:26.525Z,96.38
2022-08-22T05:07:11.051Z,96.58
2022-08-22T05:07:49.607Z,96.96
2022-08-22T05:08:25.795Z,96.80
2022-08-22T05:09:02.503Z,96.90
2022-08-22T05:09:38.094Z,96.69
2022-08-22T05:10:26.828Z,96.61
2022-08-22T05:10:59.349Z,96.51
2022-08-22T05:11:33.642Z,96.46
2022-08-22T05:12:12.050Z,96.68
2022-08-22T05:12:53.281Z,96.92
2022-08-22T05:13:32.603Z,96.80
2022-08-22T05:14:13.735Z,96.94
2022-08-22T05:14:58.585Z,96.67
2022-08-22T05:15:35.218Z,96.94
2022-08-22T05:16:14.673Z,96.65
2022-08-22T05:16:50.829Z,96.88
2022-08-22T05:17:25.810Z,96.73
2022-08-22T05:18:03.926Z,96.66
2022-08-22T05:18:43.894Z,96.66
2022-08-22T05:19:31.238Z,96.70
2022-08-22T05:20:10.861Z,96.57
2022-08-22T05:20:46.993Z,96.75
2022-08-22T05:21:27.001Z,96.56
2022-08-22T05:21:59.783Z,96.46
2022-08-22T05:22:36.171Z,96.87
2022-08-22T05:23:21.929Z,96.61
2022-08-22T05:24:10.834Z,96.65
2022-08-22T05:24:48.732Z,96.89
2022-08-22T05:25:28.099Z,97.11
2022-08-22T05:26:04.881Z,97.07
2022-08-22T05:26:41.005Z,96.81
2022-08-22T05:27:18.765Z,96.86
2022-08-22T05:27:56.320Z,96.87
2022-08-22T05:28:34.130Z,96.78
2022-08-22T05:29:09.107Z,96.76
2022-08-22T05:29:43.050Z,96.57
2022-08-22T05:30:22.269Z,96.81
2022-08-22T05:30:54.636Z,96.92
2022-08-22T05:31:38.862Z,96.59
2022-08-22T05:32:43.820Z,96.83
2022-08-22T05:33:30.313Z,96.84
2022-08-22T05:34:11.282Z,96.75
2022-08-22T05:34:45.366Z,96.59
2022-08-22T05:35:20.105Z,96.71
2022-08-22T05:36:00.994Z,96.85
2022-08-22T05:36:38.705Z,96.53
2022-08-22T05:37:25.021Z,96.41
2022-08-22T05:37:57.101Z,96.56
2022-08-22T05:38:34.499Z,96.09
2022-08-22T05:39:20.593Z,96.24
2022-08-22T05:39:57.297Z,96.47
2022-08-22T05:40:31.439Z,96.18
2022-08-22T05:41:08.662Z,96.63
2022-08-22T05:41:41.513Z,96.45
2022-08-22T05:42:18.648Z,96.38
2022-08-22T05:42:51.683Z,96.09
2022-08-22T05:43:25.638Z,95.92
2022-08-22T05:43:57.451Z,95.79
2022-08-22T05:44:34.899Z,95.71
2022-08-22T05:45:11.656Z,95.99
2022-08-22T05:45:47.358Z,96.81
2022-08-22T05:46:41.577Z,96.51
2022-08-22T05:47:23.418Z,96.04
2022-08-22T05:48:05.707Z,95.82
2022-08-22T05:48:45.561Z,95.73
2022-08-22T05:49:22.669Z,95.28
2022-08-22T05:50:06.432Z,95.58
2022-08-22T05:50:40.603Z,95.53
2022-08-22T05:51:21.673Z,95.67
2022-08-22T05:52:22.589Z,95.84
2022-08-22T05:53:03.203Z,95.89
2022-08-22T05:53:42.721Z,95.37
2022-08-22T05:54:33.497Z,95.46
2022-08-22T05:55:14.509Z,96.07
2022-08-22T05:56:01.887Z,95.55
2022-08-22T05:56:38.783Z,94.98
2022-08-22T05:57:31.874Z,95.24
2022-08-22T05:58:09.464Z,94.93
2022-08-22T05:59:13.264Z,95.16
2022-08-22T05:59:48.463Z,94.79
2022-08-22T06:00:23.328Z,94.82
2022-08-22T06:01:13.571Z,94.50
2022-08-22T06:02:03.571Z,94.39
2022-08-22T06:03:08.098Z,94.30
2022-08-22T06:04:01.438Z,93.97
2022-08-22T06:04:50.113Z,95.24
2022-08-22T06:05:27.596Z,94.13
2022-08-22T06:06:06.826Z,93.37
2022-08-22T06:06:54.969Z,93.93
2022-08-22T06:07:49.268Z,94.14
2022-08-22T06:08:30.621Z,93.90
2022-08-22T06:09:13.139Z,94.33
2022-08-22T06:10:13.874Z,94.38
2022-08-22T06:10:53.472Z,94.35
2022-08-22T06:11:51.659Z,94.40
2022-08-22T06:12:36.536Z,94.51
2022-08-22T06:13:26.284Z,94.38
2022-08-22T06:14:10.681Z,94.18
2022-08-22T06:14:47.669Z,94.67
2022-08-22T06:15:32.341Z,94.89
2022-08-22T06:16:16.960Z,94.40
2022-08-22T06:16:56.621Z,94.37
2022-08-22T06:17:34.678Z,94.23
2022-08-22T06:18:11.715Z,94.52
2022-08-22T06:18:44.642Z,94.31
2022-08-22T06:19:19.942Z,94.56
2022-08-22T06:19:53.498Z,94.69
2022-08-22T06:20:37.445Z,94.54
2022-08-22T06:21:19.977Z,94.65
2022-08-22T06:21:53.998Z,94.46
2022-08-22T06:22:29.410Z,94.33
2022-08-22T06:23:03.072Z,95.34
2022-08-22T06:23:57.499Z,94.44
2022-08-22T06:24:32.259Z,95.02
2022-08-22T06:25:13.158Z,94.75
2022-08-22T06:25:47.997Z,94.54
2022-08-22T06:26:20.800Z,94.37
2022-08-22T06:26:57.111Z,94.62
2022-08-22T06:27:31.273Z,94.95
2022-08-22T06:28:17.537Z,95.01
2022-08-22T06:28:55.315Z,95.30
2022-08-22T06:29:36.275Z,95.01
2022-08-22T06:30:12.567Z,94.99
2022-08-22T06:30:45.632Z,94.74
2022-08-22T06:31:26.081Z,94.92
2022-08-22T06:32:01.434Z,94.78
2022-08-22T06:33:00.154Z,94.75
2022-08-22T06:33:41.529Z,94.70
2022-08-22T06:34:23.658Z,94.78
2022-08-22T06:35:02.769Z,94.27
2022-08-22T06:36:01.888Z,94.07
2022-08-22T06:36:37.529Z,94.75
2022-08-22T06:37:16.856Z,95.11
2022-08-22T06:37:52.006Z,94.77
2022-08-22T06:38:32.413Z,94.74
2022-08-22T06:39:09.589Z,94.62
2022-08-22T06:39:45.593Z,94.63
2022-08-22T06:40:18.522Z,94.59
2022-08-22T06:40:54.350Z,94.32
2022-08-22T06:41:30.546Z,94.63
2022-08-22T06:42:16.327Z,94.32
2022-08-22T06:42:51.965Z,94.03
2022-08-22T06:43:24.938Z,94.17
2022-08-22T06:43:58.605Z,94.31
2022-08-22T06:44:36.368Z,94.28
2022-08-22T06:45:16.871Z,94.38
2022-08-22T06:45:49.672Z,94.71
2022-08-22T06:46:23.258Z,94.94
2022-08-22T06:46:58.678Z,94.30
2022-08-22T06:47:33.572Z,94.03
2022-08-22T06:48:05.582Z,94.03
2022-08-22T06:48:38.204Z,93.79
2022-08-22T06:49:10.044Z,93.53
2022-08-22T06:49:44.183Z,93.16
2022-08-22T06:50:23.249Z,93.53
2022-08-22T06:50:58.705Z,93.39
2022-08-22T06:51:30.918Z,93.32
2022-08-22T06:52:07.742Z,93.87
2022-08-22T06:52:56.444Z,93.82
2022-08-22T06:53:35.248Z,93.62
2022-08-22T06:54:16.249Z,93.83
2022-08-22T06:54:52.370Z,93.62
2022-08-22T06:55:26.560Z,93.81
2022-08-22T06:56:06.012Z,93.39
2022-08-22T06:56:42.585Z,93.42
2022-08-22T06:57:34.984Z,93.86
2022-08-22T06:58:14.952Z,93.62
2022-08-22T06:58:49.391Z,93.69
2022-08-22T06:59:26.628Z,93.63
2022-08-22T07:00:00.453Z,93.53
2022-08-22T07:00:34.682Z,93.14
2022-08-22T07:01:11.603Z,93.55
2022-08-22T07:01:50.511Z,93.03
2022-08-22T07:02:38.920Z,93.47
2022-08-22T07:03:27.647Z,93.56
2022-08-22T07:04:06.175Z,93.37
2022-08-22T07:04:38.229Z,93.28
2022-08-22T07:05:25.899Z,92.61
2022-08-22T07:05:57.844Z,93.22
2022-08-22T07:06:36.181Z,93.19
2022-08-22T07:07:07.986Z,93.07
2022-08-22T07:07:39.608Z,92.52
2022-08-22T07:08:14.974Z,92.81
2022-08-22T07:08:52.538Z,92.99
2022-08-22T07:09:35.565Z,92.49
2022-08-22T07:10:10.748Z,92.88
2022-08-22T07:10:45.313Z,92.83
2022-08-22T07:11:22.298Z,92.71
2022-08-22T07:12:00.946Z,92.26
2022-08-22T07:12:36.848Z,92.34
2022-08-22T07:13:15.185Z,92.16
2022-08-22T07:13:53.709Z,92.15
2022-08-22T07:14:44.469Z,91.65
2022-08-22T07:15:32.686Z,91.46
2022-08-22T07:16:07.321Z,91.97
2022-08-22T07:16:42.150Z,92.02
2022-08-22T07:17:32.457Z,90.95
2022-08-22T07:18:18.025Z,90.60
2022-08-22T07:18:50.186Z,90.86
2022-08-22T07:19:31.589Z,91.26
2022-08-22T07:20:10.853Z,91.76
2022-08-22T07:20:45.258Z,91.65
2022-08-22T07:21:32.550Z,89.92
2022-08-22T07:22:23.635Z,89.82
2022-08-22T07:23:05.982Z,88.95
2022-08-22T07:23:47.862Z,88.61
2022-08-22T07:24:24.806Z,89.41
2022-08-22T07:25:15.020Z,88.20
2022-08-22T07:26:01.395Z,89.21
2022-08-22T07:26:33.667Z,88.52
2022-08-22T07:27:26.424Z,88.76
2022-08-22T07:28:16.668Z,89.41
2022-08-22T07:28:57.856Z,89.20
2022-08-22T07:29:38.930Z,89.27
2022-08-22T07:30:14.054Z,89.48
2022-08-22T07:30:58.058Z,88.77
2022-08-22T07:31:41.953Z,88.33
2022-08-22T07:32:33.196Z,88.37
2022-08-22T07:33:30.801Z,88.95
2022-08-22T07:34:23.557Z,89.74
2022-08-22T07:35:15.770Z,89.35
2022-08-22T07:35:54.324Z,90.03
2022-08-22T07:36:32.022Z,90.22
2022-08-22T07:37:14.790Z,89.74
2022-08-22T07:37:52.753Z,90.11
2022-08-22T07:38:45.504Z,90.40
2022-08-22T07:39:35.450Z,90.21
2022-08-22T07:40:23.635Z,90.30
2022-08-22T07:41:20.199Z,90.30
2022-08-22T07:42:06.894Z,90.88
2022-08-22T07:43:00.295Z,90.91
2022-08-22T07:43:44.918Z,90.59
2022-08-22T07:44:21.592Z,91.19
2022-08-22T07:45:17.947Z,91.19
2022-08-22T07:46:01.008Z,90.59
2022-08-22T07:46:40.998Z,91.00
2022-08-22T07:47:18.121Z,90.86
2022-08-22T07:48:22.673Z,90.98
2022-08-22T07:49:09.507Z,91.09
2022-08-22T07:49:52.848Z,90.69
2022-08-22T07:50:29.955Z,90.26
2022-08-22T07:51:04.340Z,89.44
2022-08-22T07:51:46.761Z,88.92
2022-08-22T07:52:20.156Z,89.19
2022-08-22T07:52:53.638Z,88.55
2022-08-22T07:53:30.308Z,88.34
2022-08-22T07:54:09.140Z,88.54
2022-08-22T07:55:08.772Z,89.47
2022-08-22T07:55:49.692Z,88.54
2022-08-22T07:56:28.335Z,88.98
2022-08-22T07:57:08.188Z,89.04
2022-08-22T07:57:44.825Z,88.42
2022-08-22T07:58:18.118Z,90.44
2022-08-22T07:59:09.997Z,89.94
2022-08-22T07:59:52.062Z,89.32
2022-08-22T08:00:24.717Z,88.61
2022-08-22T08:00:57.016Z,88.44
2022-08-22T08:01:29.645Z,88.88
2022-08-22T08:02:05.270Z,89.48
2022-08-22T08:02:39.045Z,89.62
2022-08-22T08:03:12.248Z,89.81
2022-08-22T08:03:51.125Z,90.40
2022-08-22T08:04:40.032Z,89.32
2022-08-22T08:05:14.345Z,89.00
2022-08-22T08:05:46.046Z,88.79
2022-08-22T08:06:17.713Z,88.93
2022-08-22T08:06:52.818Z,89.10
2022-08-22T08:07:27.512Z,89.53
2022-08-22T08:08:07.297Z,88.96
2022-08-22T08:08:41.880Z,89.31
2022-08-22T08:09:17.252Z,89.15
2022-08-22T08:09:53.446Z,89.31
2022-08-22T08:10:34.822Z,89.63
2022-08-22T08:11:10.602Z,89.52
2022-08-22T08:11:44.933Z,89.06
2022-08-22T08:12:21.950Z,88.43
2022-08-22T08:13:02.305Z,87.57
2022-08-22T08:13:37.939Z,88.08
2022-08-22T08:14:13.754Z,89.07
2022-08-22T08:14:50.569Z,87.49
2022-08-22T08:15:23.805Z,87.99
2022-08-22T08:15:55.880Z,87.88
2022-08-22T08:16:31.854Z,88.39
2022-08-22T08:17:19.628Z,88.74
2022-08-22T08:17:56.441Z,88.56
2022-08-22T08:18:32.093Z,88.10
2022-08-22T08:19:03.825Z,88.31
2022-08-22T08:19:39.765Z,88.71
2022-08-22T08:20:17.777Z,88.42
2022-08-22T08:20:58.489Z,88.96
2022-08-22T08:21:36.123Z,88.89
2022-08-22T08:22:12.912Z,88.83
2022-08-22T08:22:45.721Z,88.85
2022-08-22T08:23:23.492Z,89.09
2022-08-22T08:23:56.203Z,89.72
2022-08-22T08:24:39.916Z,89.66
2022-08-22T08:25:20.325Z,88.62
2022-08-22T08:26:06.920Z,88.86
2022-08-22T08:27:03.061Z,89.62
2022-08-22T08:27:56.572Z,89.90
2022-08-22T08:28:34.900Z,90.64
2022-08-22T08:29:07.336Z,89.90
2022-08-22T08:29:43.200Z,89.79
2022-08-22T08:30:19.352Z,89.72
2022-08-22T08:30:59.477Z,90.25
2022-08-22T08:31:38.095Z,91.02
2022-08-22T08:32:15.501Z,90.04
2022-08-22T08:32:59.592Z,89.61
2022-08-22T08:33:48.681Z,89.10
2022-08-22T08:34:23.457Z,89.77
2022-08-22T08:34:55.304Z,88.98
2022-08-22T08:35:42.346Z,88.89
2022-08-22T08:36:33.370Z,88.31
2022-08-22T08:37:09.834Z,87.51
2022-08-22T08:37:49.367Z,87.27
2022-08-22T08:38:25.983Z,87.91
2022-08-22T08:39:12.462Z,87.71
2022-08-22T08:39:51.917Z,87.12
2022-08-22T08:40:55.073Z,86.12
2022-08-22T08:41:47.574Z,84.67
2022-08-22T08:42:28.213Z,85.00
2022-08-22T08:43:27.860Z,84.74
2022-08-22T08:44:22.649Z,85.99
2022-08-22T08:45:12.157Z,86.25
2022-08-22T08:46:07.044Z,85.92
2022-08-22T08:46:41.371Z,87.00
2022-08-22T08:47:46.028Z,87.57
2022-08-22T08:48:31.836Z,88.57
2022-08-22T08:49:24.178Z,88.10
2022-08-22T08:50:21.090Z,87.48
2022-08-22T08:51:37.893Z,89.19
2022-08-22T08:52:40.414Z,88.07
2022-08-22T08:53:43.325Z,88.35
2022-08-22T08:54:43.497Z,89.93
2022-08-22T08:55:51.783Z,90.44
2022-08-22T08:56:54.317Z,90.28
2022-08-22T08:57:39.987Z,91.06
2022-08-22T08:58:24.082Z,90.18
2022-08-22T08:59:15.062Z,89.86
2022-08-22T09:00:12.282Z,90.58
2022-08-22T09:00:51.236Z,89.03
2022-08-22T09:01:41.130Z,89.07
2022-08-22T09:02:23.708Z,89.82
2022-08-22T09:03:21.163Z,90.70
2022-08-22T09:04:14.966Z,89.97
2022-08-22T09:05:04.932Z,90.20
2022-08-22T09:05:49.125Z,90.60
2022-08-22T09:06:52.749Z,89.48
2022-08-22T09:07:52.389Z,90.75
2022-08-22T09:08:45.150Z,91.27
2022-08-22T09:09:19.766Z,90.44
2022-08-22T09:10:27.245Z,91.06
2022-08-22T09:11:42.669Z,89.78
2022-08-22T09:12:33.722Z,90.60
2022-08-22T09:13:34.494Z,90.59
2022-08-22T09:14:46.277Z,90.66
2022-08-22T09:15:38.931Z,91.58
2022-08-22T09:16:29.606Z,91.16
2022-08-22T09:17:04.946Z,91.77
2022-08-22T09:18:04.152Z,91.24
2022-08-22T09:19:14.216Z,90.91
2022-08-22T09:20:17.744Z,91.38
2022-08-22T09:21:31.271Z,91.25
2022-08-22T09:22:20.940Z,91.50
2022-08-22T09:23:20.153Z,91.19
2022-08-22T09:24:28.547Z,91.40
2022-08-22T09:25:38.642Z,91.46
2022-08-22T09:26:48.108Z,91.44
2022-08-22T09:27:24.423Z,91.42
2022-08-22T09:27:59.520Z,91.43
2022-08-22T09:28:38.718Z,91.28
2022-08-22T09:29:54.830Z,91.19
2022-08-22T09:30:43.479Z,91.21
2022-08-22T09:31:48.297Z,91.43
2022-08-22T09:33:01.008Z,91.85
2022-08-22T09:33:49.773Z,92.15
2022-08-22T09:34:32.548Z,91.78
2022-08-22T09:35:09.216Z,91.93
2022-08-22T09:36:03.031Z,91.87
2022-08-22T09:36:46.068Z,91.70
2022-08-22T09:37:41.397Z,91.34
2022-08-22T09:38:35.319Z,92.06
2022-08-22T09:39:44.773Z,91.56
2022-08-22T09:40:29.407Z,91.01
2022-08-22T09:41:13.083Z,91.30
2022-08-22T09:42:04.772Z,90.53
2022-08-22T09:43:02.924Z,90.40
2022-08-22T09:43:48.546Z,90.43
2022-08-22T09:44:39.622Z,90.21
2022-08-22T09:45:11.764Z,89.94
2022-08-22T09:45:47.204Z,90.27
2022-08-22T09:46:22.518Z,89.99
2022-08-22T09:47:03.583Z,89.84
2022-08-22T09:47:47.114Z,89.64
2022-08-22T09:48:28.910Z,89.69
2022-08-22T09:49:06.966Z,89.65
2022-08-22T09:49:44.825Z,89.26
2022-08-22T09:50:24.744Z,89.52
2022-08-22T09:51:31.284Z,89.76
2022-08-22T09:52:15.359Z,89.78
2022-08-22T09:53:17.430Z,89.39